IXN weather

Khowai Airport
Khowai, Tripura, India

Public forecast

Using degrees Celsius for public forecast. Weather courtesy of forecast.io.

Closest aviation weather report (METAR) to Khowai Airport

Closest report is Agartala Airport, 22.5 nm (41.7 km) WSW. Retrieved 2020/02/23 13:30 UTC (24 minutes ago):

VEAT 231330Z 00000KT 4000 BR FEW020 SCT100 24/20 Q1014 NOSIG

Closest aviation forecast (TAF) to Khowai Airport

Forecast is more than 12 hours old.

Closest forecast is Agartala Airport, 22.5 nm (41.7 km) WSW. Retrieved 2013/07/19 12:00 UTC (7 years ago):

TAF VEAT 190900Z 1912/1921 16008KT 5000 HZ SCT018 FEW030CB BKN100 TEMPO 1912/1921 3000 -TSRA SCT015 FEW025CB OVC090